createdAt,value
2022-10-28T00:01:25.142Z,15.90
2022-10-28T00:04:11.438Z,15.90
2022-10-28T00:06:57.576Z,15.90
2022-10-28T00:09:46.256Z,15.90
2022-10-28T00:12:36.321Z,15.80
2022-10-28T00:15:22.505Z,15.80
2022-10-28T00:18:11.548Z,15.80
2022-10-28T00:21:02.183Z,15.80
2022-10-28T00:23:48.082Z,15.80
2022-10-28T00:26:39.192Z,15.80
2022-10-28T00:29:25.566Z,15.70
2022-10-28T00:32:13.744Z,15.80
2022-10-28T00:35:00.463Z,15.80
2022-10-28T00:37:46.555Z,15.70
2022-10-28T00:40:36.057Z,15.70
2022-10-28T00:43:37.996Z,15.70
2022-10-28T00:46:47.437Z,15.70
2022-10-28T00:49:34.704Z,15.70
2022-10-28T00:52:24.255Z,15.70
2022-10-28T00:55:10.699Z,15.70
2022-10-28T00:58:02.527Z,15.70
2022-10-28T01:00:49.234Z,15.70
2022-10-28T01:03:37.531Z,15.70
2022-10-28T01:06:36.952Z,15.70
2022-10-28T01:12:23.030Z,15.70
2022-10-28T01:15:40.652Z,15.60
2022-10-28T01:18:56.203Z,15.70
2022-10-28T01:22:04.898Z,15.60
2022-10-28T01:25:09.930Z,15.60
2022-10-28T01:27:56.184Z,15.60
2022-10-28T01:31:00.012Z,15.60
2022-10-28T01:34:03.288Z,15.60
2022-10-28T01:37:12.627Z,15.50
2022-10-28T01:40:18.747Z,15.50
2022-10-28T01:43:07.919Z,15.60
2022-10-28T01:46:14.702Z,15.50
2022-10-28T01:49:09.403Z,15.50
2022-10-28T01:52:00.706Z,15.50
2022-10-28T01:54:51.542Z,15.50
2022-10-28T01:57:39.917Z,15.50
2022-10-28T02:00:26.487Z,15.40
2022-10-28T02:03:12.289Z,15.40
2022-10-28T02:06:03.405Z,15.40
2022-10-28T02:09:10.216Z,15.40
2022-10-28T02:12:08.363Z,15.40
2022-10-28T02:15:13.141Z,15.40
2022-10-28T02:18:23.725Z,15.40
2022-10-28T02:21:24.887Z,15.40
2022-10-28T02:24:22.821Z,15.30
2022-10-28T02:27:16.757Z,15.30
2022-10-28T02:30:19.128Z,15.30
2022-10-28T02:33:11.527Z,15.20
2022-10-28T02:36:05.698Z,15.30
2022-10-28T02:38:58.144Z,15.20
2022-10-28T02:41:51.334Z,15.20
2022-10-28T02:44:44.443Z,15.30
2022-10-28T02:47:37.883Z,15.30
2022-10-28T02:50:31.973Z,15.30
2022-10-28T02:56:21.346Z,15.40
2022-10-28T02:59:13.044Z,15.40
2022-10-28T03:01:59.722Z,15.40
2022-10-28T03:04:46.224Z,15.40
2022-10-28T03:07:32.261Z,15.40
2022-10-28T03:10:18.639Z,15.40
2022-10-28T03:13:04.870Z,15.40
2022-10-28T03:15:50.669Z,15.40
2022-10-28T03:18:36.676Z,15.40
2022-10-28T03:21:22.688Z,15.40
2022-10-28T03:24:08.668Z,15.40
2022-10-28T03:26:54.619Z,15.40
2022-10-28T03:29:44.810Z,15.40
2022-10-28T03:32:32.441Z,15.40
2022-10-28T03:35:18.485Z,15.50
2022-10-28T03:38:04.643Z,15.50
2022-10-28T03:40:52.606Z,15.50
2022-10-28T03:43:38.414Z,15.50
2022-10-28T03:46:24.281Z,15.50
2022-10-28T03:49:10.143Z,15.50
2022-10-28T03:51:56.087Z,15.50
2022-10-28T03:54:42.113Z,15.50
2022-10-28T03:57:31.583Z,15.50
2022-10-28T04:00:18.215Z,15.50
2022-10-28T04:03:04.554Z,15.50
2022-10-28T04:05:50.978Z,15.60
2022-10-28T04:08:37.363Z,15.60
2022-10-28T04:11:23.300Z,15.60
2022-10-28T04:14:09.192Z,15.60
2022-10-28T04:16:55.295Z,15.70
2022-10-28T04:19:41.244Z,15.70
2022-10-28T04:22:27.102Z,15.80
2022-10-28T04:25:13.064Z,15.80
2022-10-28T04:27:59.028Z,15.80
2022-10-28T04:30:47.595Z,15.80
2022-10-28T04:33:34.090Z,15.80
2022-10-28T04:36:20.035Z,15.80
2022-10-28T04:39:06.471Z,15.80
2022-10-28T04:41:52.509Z,15.80
2022-10-28T04:44:38.579Z,15.80
2022-10-28T04:47:24.767Z,15.80
2022-10-28T04:50:10.959Z,15.80
2022-10-28T04:52:57.125Z,15.80
2022-10-28T04:55:43.631Z,15.80
2022-10-28T04:58:29.663Z,15.80
2022-10-28T05:01:15.715Z,15.80
2022-10-28T05:04:01.855Z,15.90
2022-10-28T05:06:48.148Z,15.90
2022-10-28T05:09:34.186Z,15.90
2022-10-28T05:12:20.423Z,15.90
2022-10-28T05:15:07.289Z,15.90
2022-10-28T05:17:53.769Z,15.90
2022-10-28T05:20:40.719Z,15.90
2022-10-28T05:23:28.506Z,15.90
2022-10-28T05:26:17.707Z,15.90
2022-10-28T05:29:03.939Z,15.90
2022-10-28T05:31:57.600Z,15.90
2022-10-28T05:34:43.597Z,16.00
2022-10-28T05:37:29.754Z,15.90
2022-10-28T05:40:15.689Z,16.00
2022-10-28T05:43:02.440Z,16.00
2022-10-28T05:45:56.352Z,16.00
2022-10-28T05:48:42.379Z,16.10
2022-10-28T05:51:28.439Z,16.10
2022-10-28T05:54:14.771Z,16.10
2022-10-28T05:57:03.357Z,16.10
2022-10-28T05:59:49.390Z,16.10
2022-10-28T06:02:35.645Z,16.10
2022-10-28T06:05:21.783Z,16.10
2022-10-28T06:08:08.547Z,16.10
2022-10-28T06:10:56.659Z,16.10
2022-10-28T06:13:42.549Z,16.10
2022-10-28T06:16:28.392Z,16.10
2022-10-28T06:19:14.426Z,16.00
2022-10-28T06:22:00.412Z,16.00
2022-10-28T06:24:46.351Z,16.00
2022-10-28T06:27:32.241Z,15.90
2022-10-28T06:30:18.437Z,15.90
2022-10-28T06:33:04.571Z,15.90
2022-10-28T06:35:56.388Z,15.90
2022-10-28T06:38:42.784Z,15.90
2022-10-28T06:41:28.872Z,15.90
2022-10-28T06:44:15.037Z,15.90
2022-10-28T06:47:02.577Z,15.90
2022-10-28T06:49:48.549Z,15.90
2022-10-28T06:52:34.737Z,15.90
2022-10-28T06:55:23.101Z,15.90
2022-10-28T06:58:10.107Z,15.90
2022-10-28T07:00:58.609Z,16.00
2022-10-28T07:03:44.591Z,15.90
2022-10-28T07:06:30.503Z,16.00
2022-10-28T07:09:16.471Z,16.00
2022-10-28T07:12:05.057Z,16.10
2022-10-28T07:14:51.777Z,16.10
2022-10-28T07:17:37.837Z,16.20
2022-10-28T07:20:25.356Z,16.20
2022-10-28T07:23:11.857Z,16.30
2022-10-28T07:25:58.060Z,16.30
2022-10-28T07:28:44.075Z,16.40
2022-10-28T07:31:31.382Z,16.40
2022-10-28T07:34:17.618Z,16.50
2022-10-28T07:37:04.454Z,16.50
2022-10-28T07:39:50.439Z,16.50
2022-10-28T07:42:37.931Z,16.50
2022-10-28T07:45:24.074Z,16.50
2022-10-28T07:48:10.041Z,16.60
2022-10-28T07:50:55.985Z,16.60
2022-10-28T07:53:42.635Z,16.60
2022-10-28T07:56:28.800Z,16.70
2022-10-28T07:59:14.821Z,16.70
2022-10-28T08:02:00.839Z,16.80
2022-10-28T08:04:47.117Z,16.80
2022-10-28T08:07:36.210Z,16.80
2022-10-28T08:10:27.467Z,16.80
2022-10-28T08:13:13.373Z,16.80
2022-10-28T08:15:59.368Z,16.80
2022-10-28T08:18:45.932Z,16.90
2022-10-28T08:21:32.572Z,17.00
2022-10-28T08:24:18.856Z,17.00
2022-10-28T08:27:05.148Z,17.10
2022-10-28T08:29:53.262Z,17.10
2022-10-28T08:32:39.248Z,17.20
2022-10-28T08:35:25.124Z,17.30
2022-10-28T08:38:11.126Z,17.40
2022-10-28T08:41:25.512Z,17.50
2022-10-28T08:44:41.156Z,17.60
2022-10-28T08:47:47.241Z,17.70
2022-10-28T08:50:45.175Z,17.70
2022-10-28T08:54:03.019Z,17.80
2022-10-28T08:56:51.338Z,17.90
2022-10-28T08:59:40.899Z,17.90
2022-10-28T09:02:31.947Z,17.90
2022-10-28T09:05:22.695Z,18.00
2022-10-28T09:08:26.340Z,18.00
2022-10-28T09:11:37.257Z,18.00
2022-10-28T09:14:43.155Z,17.90
2022-10-28T09:17:36.631Z,17.90
2022-10-28T09:20:44.456Z,17.90
2022-10-28T09:23:34.263Z,17.90
2022-10-28T09:26:48.663Z,18.00
2022-10-28T09:29:47.459Z,18.00
2022-10-28T09:32:52.559Z,18.10
2022-10-28T09:35:43.672Z,18.20
2022-10-28T09:38:40.461Z,18.20
2022-10-28T09:41:38.862Z,18.30
2022-10-28T09:44:45.244Z,18.40
2022-10-28T09:47:38.332Z,18.40
2022-10-28T09:50:29.647Z,18.50
2022-10-28T09:53:51.099Z,18.50
2022-10-28T09:56:37.931Z,18.50
2022-10-28T09:59:24.130Z,18.50
2022-10-28T10:02:27.524Z,18.50
2022-10-28T10:05:17.368Z,18.50
2022-10-28T10:08:05.426Z,18.40
2022-10-28T10:11:04.203Z,18.40
2022-10-28T10:13:51.718Z,18.40
2022-10-28T10:16:46.852Z,18.40
2022-10-28T10:20:03.070Z,18.40
2022-10-28T10:22:50.282Z,18.40
2022-10-28T10:25:36.422Z,18.40
2022-10-28T10:28:23.552Z,18.30
2022-10-28T10:31:27.008Z,18.30
2022-10-28T10:34:33.347Z,18.30
2022-10-28T10:37:30.508Z,18.20
2022-10-28T10:40:16.463Z,18.20
2022-10-28T10:43:17.805Z,18.20
2022-10-28T10:46:17.819Z,18.20
2022-10-28T10:49:14.867Z,18.20
2022-10-28T10:52:04.646Z,18.20
2022-10-28T10:55:07.351Z,18.20
2022-10-28T10:57:54.368Z,18.30
2022-10-28T11:00:50.393Z,18.30
2022-10-28T11:03:51.131Z,18.40
2022-10-28T11:06:40.678Z,18.50
2022-10-28T11:09:35.026Z,18.60
2022-10-28T11:12:35.611Z,18.70
2022-10-28T11:15:28.220Z,18.70
2022-10-28T11:18:20.899Z,18.80
2022-10-28T11:21:45.100Z,18.80
2022-10-28T11:24:37.455Z,18.80
2022-10-28T11:27:38.409Z,18.80
2022-10-28T11:30:43.618Z,18.70
2022-10-28T11:33:51.146Z,18.70
2022-10-28T11:37:12.095Z,18.60
2022-10-28T11:40:33.394Z,18.50
2022-10-28T11:43:37.318Z,18.50
2022-10-28T11:46:32.011Z,18.40
2022-10-28T11:49:40.963Z,18.50
2022-10-28T11:52:45.257Z,18.50
2022-10-28T11:55:51.020Z,18.50
2022-10-28T11:59:02.242Z,18.60
2022-10-28T12:01:57.354Z,18.60
2022-10-28T12:04:49.102Z,18.60
2022-10-28T12:07:41.424Z,18.50
2022-10-28T12:10:35.962Z,18.50
2022-10-28T12:13:45.122Z,18.40
2022-10-28T12:16:43.367Z,18.40
2022-10-28T12:19:46.259Z,18.30
2022-10-28T12:22:46.810Z,18.30
2022-10-28T12:25:36.752Z,18.30
2022-10-28T12:28:43.687Z,18.20
2022-10-28T12:31:39.825Z,18.20
2022-10-28T12:34:42.253Z,18.20
2022-10-28T12:37:38.104Z,18.20
2022-10-28T12:40:35.411Z,18.20
2022-10-28T12:43:32.535Z,18.20
2022-10-28T12:46:37.126Z,18.30
2022-10-28T12:49:49.531Z,18.20
2022-10-28T12:52:56.066Z,18.30
2022-10-28T12:56:00.249Z,18.30
2022-10-28T12:58:52.680Z,18.40
2022-10-28T13:01:39.892Z,18.50
2022-10-28T13:04:27.342Z,18.60
2022-10-28T13:07:25.234Z,18.70
2022-10-28T13:10:31.275Z,18.80
2022-10-28T13:13:17.590Z,18.80
2022-10-28T13:16:17.402Z,18.80
2022-10-28T13:19:35.763Z,18.80
2022-10-28T13:22:57.252Z,18.80
2022-10-28T13:26:09.489Z,18.80
2022-10-28T13:28:59.446Z,18.90
2022-10-28T13:31:47.673Z,19.10
2022-10-28T13:34:37.596Z,19.20
2022-10-28T13:37:32.540Z,19.30
2022-10-28T13:40:42.032Z,19.30
2022-10-28T13:43:49.554Z,19.40
2022-10-28T13:47:04.282Z,19.50
2022-10-28T13:50:08.590Z,19.50
2022-10-28T13:53:37.923Z,19.50
2022-10-28T13:56:27.081Z,19.60
2022-10-28T13:59:13.238Z,19.60
2022-10-28T14:02:35.268Z,19.60
2022-10-28T14:05:37.017Z,19.70
2022-10-28T14:08:34.178Z,19.80
2022-10-28T14:11:24.579Z,19.90
2022-10-28T14:14:16.760Z,19.90
2022-10-28T14:17:04.262Z,20.00
2022-10-28T14:19:53.053Z,20.20
2022-10-28T14:22:39.034Z,20.20
2022-10-28T14:25:45.511Z,20.30
2022-10-28T14:28:31.952Z,20.40
2022-10-28T14:31:35.650Z,20.40
2022-10-28T14:34:21.507Z,20.40
2022-10-28T14:37:12.898Z,20.30
2022-10-28T14:40:06.446Z,20.10
2022-10-28T14:43:01.739Z,20.00
2022-10-28T14:46:12.224Z,19.90
2022-10-28T14:48:59.476Z,20.00
2022-10-28T14:51:46.682Z,20.10
2022-10-28T14:54:48.941Z,20.20
2022-10-28T14:57:35.032Z,20.40
2022-10-28T15:00:25.827Z,20.50
2022-10-28T15:03:14.051Z,20.60
2022-10-28T15:06:19.334Z,20.70
2022-10-28T15:09:25.154Z,20.70
2022-10-28T15:12:17.167Z,20.60
2022-10-28T15:15:04.589Z,20.60
2022-10-28T15:17:51.401Z,20.60
2022-10-28T15:20:37.487Z,20.50
2022-10-28T15:23:24.578Z,20.40
2022-10-28T15:26:15.628Z,20.20
2022-10-28T15:29:02.003Z,19.90
2022-10-28T15:32:33.384Z,19.60
2022-10-28T15:35:29.680Z,19.40
2022-10-28T15:38:21.799Z,19.10
2022-10-28T15:41:22.898Z,18.90
2022-10-28T15:44:37.449Z,18.70
2022-10-28T15:47:34.170Z,18.60
2022-10-28T15:50:22.873Z,18.40
2022-10-28T15:53:11.636Z,18.30
2022-10-28T15:56:19.369Z,18.10
2022-10-28T15:59:20.930Z,18.00
2022-10-28T16:02:42.631Z,17.90
2022-10-28T16:05:34.742Z,17.80
2022-10-28T16:08:32.304Z,17.70
2022-10-28T16:11:20.055Z,17.60
2022-10-28T16:14:39.529Z,17.50
2022-10-28T16:17:29.237Z,17.40
2022-10-28T16:20:20.586Z,17.30
2022-10-28T16:23:22.400Z,17.20
2022-10-28T16:26:12.037Z,17.10
2022-10-28T16:28:57.895Z,17.00
2022-10-28T16:31:46.860Z,16.90
2022-10-28T16:34:32.812Z,16.80
2022-10-28T16:37:27.068Z,16.70
2022-10-28T16:40:37.621Z,16.60
2022-10-28T16:43:25.573Z,16.50
2022-10-28T16:46:12.939Z,16.50
2022-10-28T16:48:58.769Z,16.40
2022-10-28T16:51:45.436Z,16.30
2022-10-28T16:54:31.306Z,16.20
2022-10-28T16:57:19.501Z,16.10
2022-10-28T17:00:06.706Z,16.00
2022-10-28T17:02:54.079Z,16.00
2022-10-28T17:05:40.500Z,15.90
2022-10-28T17:08:49.398Z,15.80
2022-10-28T17:11:33.922Z,15.70
2022-10-28T17:14:19.845Z,15.70
2022-10-28T17:17:05.697Z,15.60
2022-10-28T17:19:53.693Z,15.50
2022-10-28T17:22:40.771Z,15.50
2022-10-28T17:25:28.260Z,15.40
2022-10-28T17:28:14.461Z,15.40
2022-10-28T17:31:08.383Z,15.30
2022-10-28T17:33:55.119Z,15.30
2022-10-28T17:36:41.195Z,15.20
2022-10-28T17:39:27.160Z,15.20
2022-10-28T17:42:13.432Z,15.10
2022-10-28T17:45:03.593Z,15.10
2022-10-28T17:47:49.989Z,15.00
2022-10-28T17:50:35.995Z,14.90
2022-10-28T17:53:22.232Z,14.90
2022-10-28T17:56:12.512Z,14.80
2022-10-28T17:59:02.242Z,14.80
2022-10-28T18:01:49.304Z,14.70
2022-10-28T18:04:35.562Z,14.60
2022-10-28T18:07:21.706Z,14.60
2022-10-28T18:10:08.542Z,14.50
2022-10-28T18:12:54.640Z,14.50
2022-10-28T18:15:40.936Z,14.40
2022-10-28T18:18:26.877Z,14.40
2022-10-28T18:21:24.328Z,14.30
2022-10-28T18:24:11.918Z,14.30
2022-10-28T18:26:58.402Z,14.20
2022-10-28T18:29:44.430Z,14.20
2022-10-28T18:32:32.308Z,14.10
2022-10-28T18:35:18.447Z,14.10
2022-10-28T18:38:04.506Z,14.00
2022-10-28T18:40:50.464Z,14.00
2022-10-28T18:43:36.511Z,14.00
2022-10-28T18:46:23.184Z,13.90
2022-10-28T18:49:09.353Z,13.90
2022-10-28T18:51:55.307Z,13.80
2022-10-28T18:54:41.244Z,13.80
2022-10-28T18:57:28.162Z,13.70
2022-10-28T19:00:18.663Z,13.70
2022-10-28T19:03:05.859Z,13.70
2022-10-28T19:05:52.000Z,13.60
2022-10-28T19:08:38.661Z,13.60
2022-10-28T19:11:32.776Z,13.60
2022-10-28T19:14:18.624Z,13.60
2022-10-28T19:17:07.018Z,13.50
2022-10-28T19:19:53.011Z,13.50
2022-10-28T19:22:38.956Z,13.50
2022-10-28T19:25:24.820Z,13.40
2022-10-28T19:28:10.906Z,13.40
2022-10-28T19:31:05.801Z,13.40
2022-10-28T19:33:53.557Z,13.30
2022-10-28T19:36:39.475Z,13.30
2022-10-28T19:39:25.419Z,13.30
2022-10-28T19:42:11.260Z,13.20
2022-10-28T19:44:57.908Z,13.20
2022-10-28T19:47:44.210Z,13.20
2022-10-28T19:50:31.308Z,13.20
2022-10-28T19:53:17.240Z,13.10
2022-10-28T19:56:04.612Z,13.10
2022-10-28T19:58:53.380Z,13.10
2022-10-28T20:01:43.830Z,13.00
2022-10-28T20:04:30.729Z,13.00
2022-10-28T20:07:16.609Z,13.00
2022-10-28T20:10:02.554Z,13.00
2022-10-28T20:12:48.655Z,13.00
2022-10-28T20:15:34.458Z,13.00
2022-10-28T20:18:20.652Z,13.00
2022-10-28T20:21:15.731Z,13.00
2022-10-28T20:24:04.431Z,13.00
2022-10-28T20:26:50.808Z,13.00
2022-10-28T20:29:36.578Z,12.90
2022-10-28T20:32:24.674Z,12.90
2022-10-28T20:35:10.937Z,12.90
2022-10-28T20:37:57.722Z,12.90
2022-10-28T20:41:02.490Z,12.90
2022-10-28T20:43:53.358Z,12.90
2022-10-28T20:46:40.850Z,12.90
2022-10-28T20:49:27.389Z,12.90
2022-10-28T20:52:16.534Z,12.90
2022-10-28T20:55:03.079Z,12.90
2022-10-28T20:57:49.910Z,12.90
2022-10-28T21:00:35.986Z,12.90
2022-10-28T21:03:22.360Z,12.90
2022-10-28T21:06:09.113Z,12.90
2022-10-28T21:08:56.526Z,12.90
2022-10-28T21:11:44.716Z,12.90
2022-10-28T21:14:31.493Z,12.80
2022-10-28T21:17:17.767Z,12.80
2022-10-28T21:20:04.074Z,12.80
2022-10-28T21:22:50.376Z,12.80
2022-10-28T21:25:36.394Z,12.70
2022-10-28T21:28:22.730Z,12.70
2022-10-28T21:31:12.361Z,12.70
2022-10-28T21:33:59.173Z,12.70
2022-10-28T21:36:46.612Z,12.60
2022-10-28T21:39:32.598Z,12.60
2022-10-28T21:42:18.873Z,12.60
2022-10-28T21:45:07.517Z,12.50
2022-10-28T21:47:56.965Z,12.50
2022-10-28T21:50:50.942Z,12.50
2022-10-28T21:53:38.259Z,12.50
2022-10-28T21:56:27.398Z,12.40
2022-10-28T21:59:13.750Z,12.40
2022-10-28T22:01:59.715Z,12.40
2022-10-28T22:04:46.144Z,12.40
2022-10-28T22:07:34.997Z,12.40
2022-10-28T22:10:20.918Z,12.40
2022-10-28T22:13:06.914Z,12.40
2022-10-28T22:15:57.897Z,12.30
2022-10-28T22:18:44.804Z,12.40
2022-10-28T22:21:33.524Z,12.30
2022-10-28T22:24:19.410Z,12.30
2022-10-28T22:27:06.052Z,12.30
2022-10-28T22:29:52.681Z,12.30
2022-10-28T22:32:38.983Z,12.30
2022-10-28T22:35:24.821Z,12.30
2022-10-28T22:38:10.774Z,12.30
2022-10-28T22:41:20.920Z,12.30
2022-10-28T22:44:07.562Z,12.40
2022-10-28T22:46:56.568Z,12.30
2022-10-28T22:49:42.502Z,12.30
2022-10-28T22:52:28.452Z,12.40
2022-10-28T22:55:15.183Z,12.30
2022-10-28T22:58:01.586Z,12.30
2022-10-28T23:00:47.631Z,12.30
2022-10-28T23:03:42.100Z,12.30
2022-10-28T23:06:28.687Z,12.30
2022-10-28T23:09:14.640Z,12.30
2022-10-28T23:12:00.575Z,12.30
2022-10-28T23:14:46.457Z,12.20
2022-10-28T23:17:32.251Z,12.30
2022-10-28T23:20:19.819Z,12.20
2022-10-28T23:23:06.075Z,12.20
2022-10-28T23:25:53.505Z,12.30
2022-10-28T23:28:40.467Z,12.30
2022-10-28T23:31:27.550Z,12.30
2022-10-28T23:34:13.422Z,12.30
2022-10-28T23:36:59.524Z,12.30
2022-10-28T23:39:45.431Z,12.30
2022-10-28T23:42:31.503Z,12.30
2022-10-28T23:45:17.485Z,12.30
2022-10-28T23:48:03.258Z,12.30
2022-10-28T23:50:49.470Z,12.30
2022-10-28T23:53:35.444Z,12.30
2022-10-28T23:56:24.570Z,12.30
2022-10-28T23:59:10.701Z,12.30
